• Join FlightAware (Why Join?)
  • Login
  • US Flag 
03:35PM EDT


 

Airport Tracker/Info


-or-


 

Live Flight TrackerFlight Track Log ✈ DAL1095 ✈ 20-Jul-2013 ✈ KATL - KCLT

Flight Track Log - Related Links

Times and Time Zones

All times are in EDT time to prevent confusion due to time zone crossing. See the DAL1095 flight status page for this flight to view local times or setup timezone preferences in your user account.

Time Position Orientation Groundspeed Altitude Reporting Facility
EDT Latitude Longitude Course Direction KTS MPH feet Rate Location/Type
10:58AM 33.6286 -84.4731 115° Southeast 434 499 2,000  Level Atlanta Center
10:59AM 33.5950 -84.5500 242° Southwest 337 388 3,800 2,340 Climbing Atlanta Center
11:00AM 33.5383 -84.5994 216° Southwest 271 312 6,700 2,220 Climbing Atlanta Center
11:01AM 33.6207 -83.9730 92° East  Level FlightAware Approximate
11:02AM 33.6728 -83.8779 90° East  Level Estimated
11:02AM 33.4511 -84.4869 133° Southeast 262 302 10,600  Level Atlanta Center
11:03AM 33.6328 -83.7747 115° Southeast  Level FlightAware Approximate
11:03AM 33.4661 -84.3800 80° East 292 336 11,500  Level Atlanta Center
11:04AM 33.4808 -84.2706 81° East 338 389 13,400 1,800 Climbing Atlanta Center
11:05AM 33.5061 -84.1533 75° East 361 415 15,100 1,620 Climbing Atlanta Center
11:06AM 33.5375 -84.0314 73° East 369 425 16,700 1,620 Climbing Atlanta Center
11:07AM 33.5792 -83.9142 67° East 388 447 18,400 1,620 Climbing Atlanta Center
11:08AM 33.6228 -83.7894 67° East 395 455 20,000 1,500 Climbing Atlanta Center
11:09AM 33.6706 -83.6619 66° East 400 460 21,400 1,320 Climbing Atlanta Center
11:10AM 33.7158 -83.5319 67° East 405 466 22,700 1,800 Climbing Atlanta Center
11:11AM 33.7675 -83.4067 64° Northeast 411 473 25,100 1,140 Climbing Atlanta Center
11:12AM 33.8169 -83.2861 64° Northeast 406 467 25,000 -60 Descending Atlanta Center
11:13AM 33.8706 -83.1681 61° Northeast 401 461 25,000  Level Atlanta Center
11:14AM 33.9217 -83.0350 65° Northeast 396 456 25,000  Level Atlanta Center
11:15AM 33.9664 -82.9092 67° East 396 456 25,000  Level Atlanta Center
11:16AM 34.0153 -82.7758 66° East 413 475 25,000 -180 Level Atlanta Center
11:17AM 34.0661 -82.6469 65° Northeast 425 489 24,700 -540 Descending Atlanta Center
11:18AM 34.1086 -82.5411 64° Northeast 425 489 24,000 -360 Descending Atlanta Center
11:19AM 34.1717 -82.4017 61° Northeast 425 489 24,000  Level Atlanta Center
11:20AM 34.2261 -82.2675 64° Northeast 425 489 24,000  Level Atlanta Center
11:21AM 34.2847 -82.1381 61° Northeast 430 495 24,000 -660 Level Atlanta Center
11:22AM 34.3686 -82.0356 45° Northeast 430 495 22,700 -2,160 Descending Atlanta Center
11:23AM 34.4397 -81.9231 53° Northeast 425 489 19,700 -2,700 Descending Atlanta Center
11:24AM 34.5214 -81.8278 44° Northeast 410 472 17,300 -2,580 Descending Atlanta Center
11:25AM 34.6033 -81.7422 41° Northeast 381 438 14,800 -2,400 Descending Atlanta Center
11:26AM 34.6769 -81.6544 44° Northeast 384 442 12,500 -1,380 Descending Atlanta Center
11:27AM 34.7525 -81.5714 42° Northeast 377 434 12,000 -300 Descending Atlanta Center
11:28AM 34.8217 -81.4833 46° Northeast 360 414 11,900 -720 Descending Atlanta Center
11:29AM 34.8906 -81.3875 49° Northeast 360 414 10,600 -1,020 Descending Atlanta Center
11:30AM 34.9572 -81.2864 51° Northeast 372 428 9,900 -300 Descending Atlanta Center
11:31AM 35.0200 -81.2008 48° Northeast 355 409 10,000 -480 Climbing Atlanta Center
11:32AM 35.0786 -81.1278 46° Northeast 308 354 9,000 -540 Descending Atlanta Center
11:33AM 35.1311 -81.0522 50° Northeast 288 331 9,000  Level Atlanta Center
11:34AM 35.2011 -81.0142 24° Northeast 263 303 9,000 -720 Level Atlanta Center
11:35AM 35.2881 -81.0694 333° Northwest 233 268 7,300 -1,500 Descending Atlanta Center
11:36AM 35.3492 -81.0928 343° North 231 266 5,500 -1,560 Descending Atlanta Center
11:37AM 35.4117 -81.0931 360° North 225 259 4,200 -780 Descending Atlanta Center
11:38AM 35.4356 -81.0489 56° Northeast 188 216 4,000 -300 Descending Atlanta Center
11:39AM 35.4114 -80.9936 118° Southeast 191 220 3,700 -480 Descending Atlanta Center
11:40AM 35.3653 -80.9825 169° South 177 204 3,100 -600 Descending Atlanta Center